Nearby METAR Reports

 

NZWN - Wellington Intl, New Zealand
Distance from station: E 67km
Updated: 11/12/2018 06:30
Overcast
Overcast
 Wind from NNE
Wind: NNE 7 km/h
Temperature: 14°C
Dew Point: 12°C
Humidity: 88%
Barometer: 1014 hPa
Clouds: Overcast
Visibility: 10 km
Cloud details: Overcast 1402 m
2018/12/10 17:30 NZWN 101730Z AUTO 03004KT 9999 OVC046/// 14/12 Q1014 NOSIG
NZCH - Christchurch Int, New Zealand
Distance from station: SSW 269km
Updated: 11/12/2018 06:30
Light rain, Mostly cloudy
Light rain, Mostly cloudy
 Wind from ENE
Wind: ENE 13 km/h
Temperature: 12°C
Dew Point: 12°C
Humidity: 100%
Barometer: 1014 hPa
Summary: Light rain
Clouds: Mostly cloudy
Visibility: 4 km
Cloud details: Mostly cloudy 274 m
2018/12/10 17:30 NZCH 101730Z AUTO 06007KT 4400 -RA BKN009/// 12/12 Q1014 BECMG FM1800 9999 SCT008 BKN020
 
NZAA - Auckland Intl Ar, New Zealand
Distance from station: N 480km
Updated: 11/12/2018 06:30
Clear
Clear
 Wind from E
Wind: E 4 km/h
Temperature: 14°C
Dew Point: 13°C
Humidity: 94%
Barometer: 1013 hPa
Clouds: Clear
Visibility: 7 km
2018/12/10 17:30 NZAA 101730Z AUTO 08002KT 7000 NCD 14/13 Q1013 BECMG 9999 NSW